Time;durP1;ratioP1;P1;durP2;ratioP2;P2;SDS_P1;SDS_P2;PMS_P1;PMS_P2;Temp;Humidity;BMP_temperature;BMP_pressure;BME280_temperature;BME280_humidity;BME280_pressure;Samples;Min_cycle;Max_cycle;Signal;HPM_P1;HPM_P2
2022/07/15 00:02:05;;;;;;;5.88;1.60;;;19.30;56.90;;;;;;5018498;28;20034;-66
2022/07/15 00:04:31;;;;;;;6.28;1.85;;;19.30;56.90;;;;;;5030387;28;20034;-65
2022/07/15 00:06:57;;;;;;;6.18;1.70;;;19.20;56.90;;;;;;5017659;28;20037;-66
2022/07/15 00:10:13;;;;;;;7.60;1.60;;;19.20;57.10;;;;;;5020374;28;20030;-65
2022/07/15 00:12:08;;;;;;;6.30;1.70;;;19.20;57.10;;;;;;5008124;28;20144;-65
2022/07/15 00:14:34;;;;;;;5.63;2.03;;;19.20;57.20;;;;;;5017680;28;20160;-65
2022/07/15 00:16:59;;;;;;;5.38;1.60;;;19.10;57.30;;;;;;5015461;28;20029;-65
2022/07/15 00:19:25;;;;;;;7.50;1.67;;;19.10;57.30;;;;;;5015610;28;20471;-65
2022/07/15 00:21:51;;;;;;;6.22;1.67;;;19.10;57.40;;;;;;4997155;28;20025;-65
2022/07/15 00:24:16;;;;;;;4.97;1.65;;;19.10;57.40;;;;;;5014916;28;20088;-65
2022/07/15 00:26:42;;;;;;;5.20;1.60;;;19.10;57.50;;;;;;5013189;28;20022;-65
2022/07/15 00:29:07;;;;;;;5.00;1.80;;;19.00;57.60;;;;;;5021791;28;20030;-65
2022/07/15 00:31:33;;;;;;;6.97;2.05;;;19.00;57.70;;;;;;5014964;28;20030;-65
2022/07/15 00:33:59;;;;;;;7.05;1.73;;;19.00;57.80;;;;;;5022629;28;20216;-65
2022/07/15 00:36:24;;;;;;;5.97;1.67;;;19.00;57.80;;;;;;5014753;28;20018;-65
2022/07/15 00:38:50;;;;;;;6.95;1.80;;;18.90;57.90;;;;;;5014601;28;20069;-65
2022/07/15 00:41:15;;;;;;;6.43;1.75;;;18.90;58.00;;;;;;5014534;28;20029;-65
2022/07/15 00:43:41;;;;;;;6.10;1.45;;;18.90;58.20;;;;;;5015015;28;20079;-65
2022/07/15 00:46:07;;;;;;;3.90;1.40;;;18.80;58.10;;;;;;4996674;28;20034;-65
2022/07/15 00:48:33;;;;;;;5.75;1.50;;;18.80;58.20;;;;;;5014939;28;20022;-65
2022/07/15 00:50:59;;;;;;;7.45;1.80;;;18.80;58.20;;;;;;5019269;28;20104;-65
2022/07/15 00:53:28;;;;;;;7.50;1.77;;;18.80;58.30;;;;;;5030471;28;20034;-65
2022/07/15 00:55:59;;;;;;;6.75;1.70;;;18.80;58.60;;;;;;5020942;28;20320;-65
2022/07/15 00:58:26;;;;;;;6.50;1.92;;;18.80;58.40;;;;;;5024790;28;20033;-65
2022/07/15 01:00:54;;;;;;;3.97;1.48;;;18.70;58.50;;;;;;5013448;28;20030;-65
2022/07/15 01:03:20;;;;;;;6.72;1.73;;;18.70;58.50;;;;;;5029946;28;20032;-65
2022/07/15 01:05:47;;;;;;;6.72;1.77;;;18.70;58.60;;;;;;5011528;28;20053;-65
2022/07/15 01:08:13;;;;;;;5.90;1.50;;;18.70;58.70;;;;;;5012891;28;20435;-65
2022/07/15 01:10:39;;;;;;;6.10;1.60;;;18.70;58.80;;;;;;5013898;28;20034;-65
2022/07/15 01:13:05;;;;;;;3.55;1.33;;;18.70;58.80;;;;;;5011921;28;20048;-66
2022/07/15 01:15:32;;;;;;;6.22;1.80;;;18.70;58.90;;;;;;5014243;28;20037;-65
2022/07/15 01:18:01;;;;;;;4.20;1.52;;;18.70;58.90;;;;;;5007923;28;20380;-65
2022/07/15 01:20:28;;;;;;;5.10;1.50;;;18.70;58.90;;;;;;5014867;28;20120;-65
2022/07/15 01:22:56;;;;;;;5.35;1.60;;;18.70;58.90;;;;;;5013645;28;20022;-65
2022/07/15 01:25:27;;;;;;;4.57;1.50;;;18.70;58.90;;;;;;5013153;28;20038;-66
2022/07/15 01:27:53;;;;;;;5.30;1.65;;;18.70;58.90;;;;;;5012922;28;20030;-65
2022/07/15 01:30:23;;;;;;;5.85;1.63;;;18.70;59.50;;;;;;5013564;28;20352;-66
2022/07/15 01:32:50;;;;;;;5.32;1.70;;;18.70;58.90;;;;;;5019538;28;20026;-66
2022/07/15 01:35:16;;;;;;;5.40;1.35;;;18.70;58.90;;;;;;5013309;28;20041;-66
2022/07/15 01:37:45;;;;;;;5.03;1.58;;;18.70;59.00;;;;;;5027712;28;20026;-65
2022/07/15 01:40:12;;;;;;;6.18;1.63;;;18.70;59.00;;;;;;5023086;28;20512;-65
2022/07/15 01:42:38;;;;;;;6.13;1.60;;;18.70;59.10;;;;;;5020493;28;20108;-65
2022/07/15 01:45:05;;;;;;;3.53;1.40;;;18.60;59.10;;;;;;5028583;28;20180;-65
2022/07/15 01:47:34;;;;;;;7.40;2.15;;;18.70;59.10;;;;;;5026853;28;20022;-65
2022/07/15 01:50:03;;;;;;;5.55;1.52;;;18.70;59.10;;;;;;5027090;28;20015;-65
2022/07/15 01:52:51;;;;;;;5.30;1.60;;;18.70;59.20;;;;;;5012880;28;20486;-65
2022/07/15 01:55:17;;;;;;;4.22;1.48;;;18.60;59.30;;;;;;5006295;28;20089;-66
2022/07/15 01:57:43;;;;;;;6.70;1.85;;;18.70;59.40;;;;;;5013553;28;20034;-65
2022/07/15 02:00:12;;;;;;;6.40;1.70;;;18.60;59.40;;;;;;5028236;28;20036;-65
2022/07/15 02:02:43;;;;;;;5.75;1.58;;;18.60;59.90;;;;;;5013216;28;20038;-65
2022/07/15 02:05:10;;;;;;;4.88;1.70;;;18.60;59.50;;;;;;5011732;28;20025;-65
2022/07/15 02:07:38;;;;;;;6.22;1.60;;;18.60;59.50;;;;;;5012997;28;20026;-65
2022/07/15 02:10:04;;;;;;;8.95;1.83;;;18.60;59.50;;;;;;5027764;28;20022;-65
2022/07/15 02:12:30;;;;;;;5.47;1.48;;;18.60;59.50;;;;;;5011568;28;20727;-65
2022/07/15 02:14:56;;;;;;;7.80;1.83;;;18.60;59.60;;;;;;5011574;28;20022;-66
2022/07/15 02:17:26;;;;;;;7.25;1.83;;;18.60;59.70;;;;;;5021790;28;20026;-66
2022/07/15 02:19:52;;;;;;;4.43;1.50;;;18.60;59.70;;;;;;5012190;28;20103;-66
2022/07/15 02:22:17;;;;;;;4.68;1.30;;;18.60;59.80;;;;;;5025105;28;20388;-66
2022/07/15 02:24:43;;;;;;;7.05;1.83;;;18.60;59.80;;;;;;5005706;28;20034;-66
2022/07/15 02:27:16;;;;;;;4.03;1.50;;;18.60;59.80;;;;;;5013048;28;20029;-65
2022/07/15 02:29:41;;;;;;;7.65;2.00;;;18.50;59.80;;;;;;5010330;28;20112;-65
2022/07/15 02:32:08;;;;;;;4.82;1.50;;;18.60;59.80;;;;;;5012095;28;20106;-65
2022/07/15 02:34:34;;;;;;;7.75;1.70;;;18.60;59.80;;;;;;5011987;28;20109;-65
2022/07/15 02:37:00;;;;;;;4.90;1.48;;;18.50;59.80;;;;;;5012881;28;20069;-65
2022/07/15 02:39:26;;;;;;;5.82;1.83;;;18.50;59.80;;;;;;5011661;28;20078;-65
2022/07/15 02:41:55;;;;;;;6.55;2.03;;;18.50;59.90;;;;;;5013161;28;20029;-65
2022/07/15 02:44:21;;;;;;;4.20;1.48;;;18.60;59.90;;;;;;5014210;28;20022;-65
2022/07/15 02:46:48;;;;;;;4.72;1.50;;;18.50;59.90;;;;;;5012807;28;20359;-65
2022/07/15 02:49:18;;;;;;;6.30;1.50;;;18.60;59.90;;;;;;5013280;28;20042;-65
2022/07/15 02:51:43;;;;;;;5.53;1.35;;;18.60;60.00;;;;;;5016939;28;20080;-65
2022/07/15 02:54:09;;;;;;;5.93;1.50;;;18.50;60.00;;;;;;5018204;28;20080;-65
2022/07/15 02:56:38;;;;;;;5.22;1.50;;;18.50;60.00;;;;;;5005429;28;20076;-65
2022/07/15 02:59:04;;;;;;;4.22;1.20;;;18.60;60.00;;;;;;5025352;28;20133;-65
2022/07/15 03:01:30;;;;;;;4.90;1.55;;;18.60;60.00;;;;;;5017679;28;20022;-65
2022/07/15 03:03:57;;;;;;;5.25;1.48;;;18.60;60.00;;;;;;5012277;28;20094;-65
2022/07/15 03:06:24;;;;;;;6.68;1.40;;;18.60;60.00;;;;;;5016566;28;20026;-65
2022/07/15 03:08:49;;;;;;;5.65;1.63;;;18.60;59.90;;;;;;5016800;28;21994;-65
2022/07/15 03:11:18;;;;;;;6.32;1.50;;;18.60;59.90;;;;;;5018995;28;20030;-65
2022/07/15 03:13:44;;;;;;;6.95;1.60;;;18.60;59.90;;;;;;5028281;28;20046;-65
2022/07/15 03:16:10;;;;;;;3.28;1.05;;;18.60;59.80;;;;;;5014442;28;20034;-65
2022/07/15 03:18:37;;;;;;;6.20;1.58;;;18.60;59.90;;;;;;5031203;28;20030;-65
2022/07/15 03:21:04;;;;;;;4.50;1.25;;;18.60;59.80;;;;;;5030794;28;20141;-65
2022/07/15 03:23:30;;;;;;;4.70;1.55;;;18.60;59.80;;;;;;5015030;28;20030;-66
2022/07/15 03:25:56;;;;;;;4.78;1.48;;;18.60;59.90;;;;;;5016351;28;20092;-65
2022/07/15 03:28:21;;;;;;;3.80;1.20;;;18.60;59.90;;;;;;5022216;28;20421;-65
2022/07/15 03:30:48;;;;;;;5.90;1.75;;;18.60;60.00;;;;;;5027900;28;20026;-66
2022/07/15 03:33:15;;;;;;;5.22;1.85;;;18.50;60.10;;;;;;5014675;28;20416;-66
2022/07/15 03:35:42;;;;;;;8.00;1.60;;;18.50;60.20;;;;;;5017829;28;20521;-66
2022/07/15 03:38:09;;;;;;;5.45;1.60;;;18.60;60.40;;;;;;5001168;28;20674;-65
2022/07/15 03:40:35;;;;;;;7.15;1.75;;;18.50;60.50;;;;;;5015204;28;20325;-66
2022/07/15 03:43:01;;;;;;;4.15;1.50;;;18.50;60.70;;;;;;5018507;28;20028;-65
2022/07/15 03:45:29;;;;;;;4.50;1.40;;;18.50;60.80;;;;;;5017061;28;20018;-65
2022/07/15 03:47:55;;;;;;;6.10;1.30;;;18.50;60.90;;;;;;5015299;28;20021;-66
2022/07/15 03:50:21;;;;;;;4.22;1.40;;;18.50;60.80;;;;;;5015424;28;20022;-64
2022/07/15 03:52:47;;;;;;;5.80;1.50;;;18.50;61.00;;;;;;5015827;28;20024;-65
2022/07/15 03:55:12;;;;;;;7.90;1.75;;;18.50;60.90;;;;;;5016524;28;20104;-65
2022/07/15 03:57:38;;;;;;;3.90;1.30;;;18.50;61.00;;;;;;5014863;28;20040;-65
2022/07/15 04:00:05;;;;;;;4.50;1.33;;;18.50;60.90;;;;;;5013355;28;20021;-65
2022/07/15 04:02:40;;;;;;;4.60;1.30;;;18.40;60.90;;;;;;5014369;28;20521;-65
2022/07/15 04:05:07;;;;;;;6.40;1.48;;;18.40;61.00;;;;;;5013030;28;20350;-66
2022/07/15 04:07:32;;;;;;;4.50;1.45;;;18.40;60.90;;;;;;5014271;28;20018;-64
2022/07/15 04:09:58;;;;;;;5.13;1.17;;;18.40;60.90;;;;;;5013335;28;20464;-64
2022/07/15 04:12:24;;;;;;;4.43;1.40;;;18.40;60.90;;;;;;5015697;28;20042;-64
2022/07/15 04:14:49;;;;;;;5.25;1.60;;;18.40;60.90;;;;;;5013856;28;21270;-64
2022/07/15 04:17:16;;;;;;;4.25;1.30;;;18.50;61.10;;;;;;5030524;28;20022;-66
2022/07/15 04:19:42;;;;;;;4.15;1.52;;;18.50;61.10;;;;;;5012131;28;20097;-66
2022/07/15 04:22:07;;;;;;;4.30;1.45;;;18.40;61.20;;;;;;5014064;28;20041;-66
2022/07/15 04:24:44;;;;;;;6.82;1.50;;;18.40;61.30;;;;;;5013733;28;20034;-66
2022/07/15 04:27:13;;;;;;;6.57;1.75;;;18.40;61.40;;;;;;5015342;28;20331;-66
2022/07/15 04:29:38;;;;;;;4.97;1.40;;;18.40;61.40;;;;;;5030591;28;20121;-66
2022/07/15 04:32:06;;;;;;;7.10;1.52;;;18.40;61.20;;;;;;5014926;28;20440;-66
2022/07/15 04:34:36;;;;;;;3.88;1.45;;;18.50;61.90;;;;;;5028787;28;20018;-66
2022/07/15 04:37:02;;;;;;;4.28;1.35;;;18.40;61.10;;;;;;5013195;28;20033;-66
2022/07/15 04:39:29;;;;;;;7.00;1.50;;;18.40;61.00;;;;;;5030302;28;20037;-66
2022/07/15 04:41:56;;;;;;;9.00;1.65;;;18.40;61.00;;;;;;5014388;28;20022;-66
2022/07/15 04:44:22;;;;;;;4.57;1.42;;;18.40;61.10;;;;;;5031181;28;20030;-66
2022/07/15 04:46:48;;;;;;;7.03;1.58;;;18.40;61.10;;;;;;5014399;28;20053;-66
2022/07/15 04:52:09;;;;;;;5.10;1.40;;;18.40;61.00;;;;;;5018588;28;20034;-66
2022/07/15 04:54:39;;;;;;;5.70;1.50;;;18.40;61.00;;;;;;5013790;28;20042;-66
2022/07/15 04:57:06;;;;;;;8.05;1.77;;;18.40;61.10;;;;;;5028959;28;20022;-66
2022/07/15 04:59:34;;;;;;;5.82;1.73;;;18.40;61.20;;;;;;5008647;28;20414;-66
2022/07/15 05:02:01;;;;;;;7.38;1.58;;;18.40;61.10;;;;;;5029002;28;20026;-66
2022/07/15 05:04:36;;;;;;;5.70;1.65;;;18.50;61.10;;;;;;5028624;28;20397;-66
2022/07/15 05:07:03;;;;;;;6.78;1.60;;;18.50;61.10;;;;;;5013154;28;20700;-66
2022/07/15 05:09:32;;;;;;;6.05;1.52;;;18.50;61.00;;;;;;5014774;28;20092;-66
2022/07/15 05:11:58;;;;;;;5.57;1.50;;;18.50;60.90;;;;;;5014112;28;20026;-66
2022/07/15 05:14:24;;;;;;;7.00;1.60;;;18.60;60.80;;;;;;5013424;28;20037;-66
2022/07/15 05:16:50;;;;;;;6.82;1.85;;;18.60;60.70;;;;;;5013089;28;20037;-66
2022/07/15 05:19:16;;;;;;;4.72;1.50;;;18.60;60.70;;;;;;5014075;28;20026;-66
2022/07/15 05:21:42;;;;;;;7.45;1.70;;;18.70;60.70;;;;;;5012274;28;20026;-65
2022/07/15 05:24:08;;;;;;;6.60;1.52;;;18.70;60.70;;;;;;4997086;28;20030;-65
2022/07/15 05:26:35;;;;;;;4.65;1.27;;;18.80;60.70;;;;;;5028924;28;20028;-65
2022/07/15 05:29:01;;;;;;;3.03;1.40;;;18.80;60.50;;;;;;5012865;28;20116;-66
2022/07/15 05:31:27;;;;;;;4.05;1.40;;;18.90;60.30;;;;;;5014551;28;20447;-66
2022/07/15 05:33:54;;;;;;;5.82;1.42;;;19.00;60.20;;;;;;5011256;28;20034;-66
2022/07/15 05:36:20;;;;;;;3.97;1.15;;;19.00;60.00;;;;;;5026906;28;20461;-66
2022/07/15 05:38:46;;;;;;;6.18;1.80;;;19.10;59.90;;;;;;5013264;28;20025;-66
2022/07/15 05:41:12;;;;;;;5.70;1.45;;;19.20;59.70;;;;;;5012561;28;20040;-66
2022/07/15 05:43:38;;;;;;;3.85;1.33;;;19.30;60.20;;;;;;5014406;28;20091;-66
2022/07/15 05:46:05;;;;;;;6.88;1.70;;;19.30;59.40;;;;;;5029310;28;20427;-66
2022/07/15 05:48:39;;;;;;;5.72;1.48;;;19.40;59.20;;;;;;5014102;28;20040;-66
2022/07/15 05:51:05;;;;;;;5.88;1.35;;;19.50;59.00;;;;;;5012361;28;20034;-66
2022/07/15 05:53:31;;;;;;;6.13;1.50;;;19.60;58.90;;;;;;5012314;28;20152;-66
2022/07/15 05:55:58;;;;;;;5.55;1.48;;;19.60;58.80;;;;;;5009895;28;20054;-65
2022/07/15 05:58:24;;;;;;;6.55;1.48;;;19.60;58.60;;;;;;5013862;28;20050;-65
2022/07/15 06:00:51;;;;;;;5.05;1.33;;;19.70;58.60;;;;;;5012684;28;20367;-65
2022/07/15 06:03:17;;;;;;;5.60;1.27;;;19.80;58.40;;;;;;5026667;28;20032;-65
2022/07/15 06:05:44;;;;;;;6.15;1.77;;;19.80;58.30;;;;;;5011784;28;20033;-65
2022/07/15 06:08:11;;;;;;;5.60;1.58;;;19.90;58.20;;;;;;5028986;28;20018;-65
2022/07/15 06:10:38;;;;;;;5.22;1.40;;;20.00;58.00;;;;;;5012442;28;20141;-65
2022/07/15 06:13:04;;;;;;;6.72;1.65;;;20.10;57.80;;;;;;5010980;28;20115;-65
2022/07/15 06:15:31;;;;;;;5.15;1.30;;;20.20;57.60;;;;;;5026916;28;20033;-65
2022/07/15 06:17:57;;;;;;;6.30;1.50;;;20.30;57.50;;;;;;5012423;28;20045;-65
2022/07/15 06:20:25;;;;;;;6.68;1.77;;;20.40;57.20;;;;;;5011920;28;20028;-65
2022/07/15 06:22:51;;;;;;;6.10;1.50;;;20.40;57.10;;;;;;5012059;28;20033;-65
2022/07/15 06:25:19;;;;;;;6.15;1.55;;;20.50;57.10;;;;;;5015838;28;20414;-65
2022/07/15 06:27:46;;;;;;;4.55;1.38;;;20.60;56.90;;;;;;5009192;28;20358;-65
2022/07/15 06:30:13;;;;;;;8.65;2.00;;;20.70;56.70;;;;;;5017637;28;20034;-65
2022/07/15 06:32:42;;;;;;;6.25;1.60;;;20.90;56.40;;;;;;5016330;28;20018;-65
2022/07/15 06:35:08;;;;;;;6.55;1.42;;;21.00;56.10;;;;;;5016350;28;20336;-66
2022/07/15 06:37:34;;;;;;;4.93;1.50;;;21.10;55.80;;;;;;5014444;28;20051;-65
2022/07/15 06:39:59;;;;;;;3.50;1.30;;;21.30;55.60;;;;;;5017179;28;20025;-66
2022/07/15 06:42:25;;;;;;;5.50;1.27;;;21.40;55.20;;;;;;5015954;28;20400;-65
2022/07/15 06:45:04;;;;;;;6.03;1.25;;;21.50;54.90;;;;;;5016097;28;20461;-66
2022/07/15 06:47:30;;;;;;;7.30;1.58;;;21.60;54.40;;;;;;5016079;28;20040;-66
2022/07/15 06:49:59;;;;;;;11.07;2.00;;;21.70;54.00;;;;;;5018022;28;20022;-66
2022/07/15 06:52:26;;;;;;;8.52;1.40;;;21.80;53.40;;;;;;5014409;28;20022;-66
2022/07/15 06:54:52;;;;;;;5.40;1.30;;;21.90;52.70;;;;;;5012938;28;20506;-66
2022/07/15 06:57:17;;;;;;;7.28;1.42;;;22.10;52.30;;;;;;5025759;28;20076;-65
2022/07/15 06:59:43;;;;;;;5.90;1.15;;;22.10;51.80;;;;;;5001310;28;20108;-66
2022/07/15 07:02:09;;;;;;;5.22;1.20;;;22.20;51.60;;;;;;5025496;28;20029;-65
2022/07/15 07:04:35;;;;;;;5.47;1.50;;;22.30;51.40;;;;;;5002736;28;20034;-66
2022/07/15 07:07:01;;;;;;;6.97;1.60;;;22.40;51.20;;;;;;5012663;28;20390;-65
2022/07/15 07:09:26;;;;;;;4.65;1.38;;;22.60;50.80;;;;;;5013853;28;20030;-66
2022/07/15 07:11:52;;;;;;;5.40;1.60;;;22.70;50.80;;;;;;5026682;28;20092;-66
2022/07/15 07:14:19;;;;;;;5.93;1.60;;;22.90;50.70;;;;;;5012856;28;20041;-66
2022/07/15 07:16:45;;;;;;;4.75;1.20;;;23.00;50.40;;;;;;5011089;28;20041;-66
2022/07/15 07:19:12;;;;;;;3.78;1.00;;;23.10;50.10;;;;;;5014477;28;20029;-66
2022/07/15 07:21:38;;;;;;;2.85;1.27;;;23.20;49.80;;;;;;5012326;28;20062;-66
2022/07/15 07:24:04;;;;;;;3.97;1.00;;;23.30;49.30;;;;;;5009936;28;20132;-66
2022/07/15 07:26:30;;;;;;;4.20;0.93;;;23.40;49.00;;;;;;5003518;28;20030;-67
2022/07/15 07:28:56;;;;;;;5.28;1.30;;;23.50;48.70;;;;;;5011637;28;20388;-66
2022/07/15 07:31:25;;;;;;;3.60;0.90;;;23.60;48.20;;;;;;5011620;28;20033;-66
2022/07/15 07:33:52;;;;;;;4.25;1.08;;;23.60;47.60;;;;;;5023153;28;20030;-66
2022/07/15 07:36:18;;;;;;;4.13;1.05;;;23.60;47.50;;;;;;5010972;28;20048;-66
2022/07/15 07:38:44;;;;;;;4.70;1.30;;;23.70;47.00;;;;;;5010489;28;20475;-66
2022/07/15 07:41:10;;;;;;;4.43;1.10;;;23.90;46.60;;;;;;5013190;28;20058;-67
2022/07/15 07:43:37;;;;;;;4.70;1.23;;;23.80;46.30;;;;;;5026766;28;20072;-66
2022/07/15 07:46:03;;;;;;;4.25;1.10;;;23.90;46.30;;;;;;5010318;28;20083;-67
2022/07/15 07:48:30;;;;;;;3.83;0.95;;;24.00;45.90;;;;;;5012880;28;20022;-67
2022/07/15 07:50:56;;;;;;;3.78;0.90;;;24.20;45.20;;;;;;5012015;28;20041;-64
2022/07/15 07:53:22;;;;;;;3.67;1.10;;;24.20;44.70;;;;;;5009109;28;20057;-64
2022/07/15 07:55:48;;;;;;;1.95;0.82;;;24.00;44.60;;;;;;5010107;28;20054;-64
2022/07/15 07:58:16;;;;;;;1.55;0.60;;;23.90;44.60;;;;;;5012022;28;20395;-64
2022/07/15 08:00:43;;;;;;;3.08;1.00;;;24.10;44.50;;;;;;5011036;28;20137;-65
2022/07/15 08:03:09;;;;;;;2.17;0.80;;;24.30;44.10;;;;;;5009377;28;20026;-68
2022/07/15 08:05:34;;;;;;;3.17;0.60;;;24.20;43.70;;;;;;5010775;28;20034;-64
2022/07/15 08:08:14;;;;;;;3.78;0.82;;;24.20;43.60;;;;;;5010459;28;20030;-64
2022/07/15 08:10:42;;;;;;;1.25;0.60;;;24.20;43.30;;;;;;5011797;28;20022;-64
2022/07/15 08:13:07;;;;;;;1.50;0.55;;;24.40;43.10;;;;;;5013415;28;20041;-64
2022/07/15 08:15:33;;;;;;;1.00;0.40;;;24.70;42.70;;;;;;5011700;28;21450;-64
2022/07/15 08:18:00;;;;;;;2.00;0.55;;;25.00;42.20;;;;;;5011104;28;20060;-65
2022/07/15 08:20:25;;;;;;;3.50;0.98;;;25.10;41.80;;;;;;5012967;28;20086;-63
2022/07/15 08:22:58;;;;;;;3.10;0.75;;;25.20;41.60;;;;;;4999839;28;20047;-64
2022/07/15 08:25:34;;;;;;;2.40;0.60;;;25.20;41.30;;;;;;5009407;28;20030;-64
2022/07/15 08:28:00;;;;;;;5.35;1.00;;;25.20;41.40;;;;;;5011211;28;20052;-64
2022/07/15 08:30:27;;;;;;;2.28;0.88;;;24.80;41.90;;;;;;5014670;28;20239;-65
2022/07/15 08:32:54;;;;;;;2.88;0.85;;;24.40;42.70;;;;;;5015838;28;20101;-64
2022/07/15 08:35:21;;;;;;;2.90;0.90;;;24.00;43.50;;;;;;5012243;28;20084;-65
2022/07/15 08:37:46;;;;;;;4.63;1.10;;;23.70;44.10;;;;;;5011046;28;20350;-65
2022/07/15 08:40:12;;;;;;;4.88;1.20;;;23.40;44.80;;;;;;5004851;28;20087;-64
2022/07/15 08:42:39;;;;;;;7.47;1.15;;;23.20;45.30;;;;;;5012725;28;20383;-65
2022/07/15 08:45:06;;;;;;;5.57;1.35;;;23.00;45.50;;;;;;5009960;28;20030;-65
2022/07/15 08:47:33;;;;;;;3.65;0.77;;;23.20;45.50;;;;;;5009086;28;20486;-64
2022/07/15 08:49:59;;;;;;;4.38;1.27;;;23.50;45.20;;;;;;5011349;28;20343;-65
2022/07/15 08:52:25;;;;;;;5.97;1.02;;;23.50;44.80;;;;;;5008472;28;20026;-65
2022/07/15 08:54:51;;;;;;;27.20;2.78;;;23.60;44.60;;;;;;5012271;28;20026;-65
2022/07/15 08:57:17;;;;;;;6.20;1.30;;;23.60;44.50;;;;;;5009000;28;20025;-64
2022/07/15 08:59:45;;;;;;;3.42;0.93;;;23.50;44.40;;;;;;5014893;28;20106;-65
2022/07/15 09:02:18;;;;;;;6.32;0.90;;;23.30;44.20;;;;;;5001806;28;20104;-66
2022/07/15 09:05:16;;;;;;;2.70;0.70;;;23.10;44.30;;;;;;5011650;28;20029;-66
2022/07/15 09:07:57;;;;;;;4.85;1.15;;;22.90;44.60;;;;;;5009687;28;20344;-65
2022/07/15 09:10:39;;;;;;;3.55;1.10;;;22.80;44.90;;;;;;5006014;28;20029;-66
2022/07/15 09:13:05;;;;;;;1.17;0.70;;;22.70;44.90;;;;;;5009375;28;20065;-66
2022/07/15 09:15:36;;;;;;;3.00;1.00;;;22.70;45.00;;;;;;5009390;28;20072;-66
2022/07/15 09:18:14;;;;;;;4.07;1.00;;;22.70;45.10;;;;;;5010642;28;20034;-67
2022/07/15 09:20:42;;;;;;;3.67;0.80;;;22.70;45.40;;;;;;5010814;28;20084;-66
2022/07/15 09:23:09;;;;;;;2.42;0.70;;;22.70;45.70;;;;;;5009709;28;20428;-65
2022/07/15 09:25:36;;;;;;;3.53;1.08;;;22.80;45.80;;;;;;5010555;28;20030;-65
2022/07/15 09:28:07;;;;;;;8.68;1.20;;;23.00;45.80;;;;;;5011315;28;20083;-66
2022/07/15 09:33:43;;;;;;;3.45;1.08;;;23.50;45.30;;;;;;4989883;28;20065;-65
2022/07/15 09:36:21;;;;;;;6.07;1.15;;;23.60;45.10;;;;;;4986102;28;20039;-65
2022/07/15 09:38:55;;;;;;;2.50;0.90;;;23.50;45.10;;;;;;4989700;28;20042;-65
2022/07/15 09:41:38;;;;;;;2.72;0.80;;;23.40;45.30;;;;;;4989331;28;20173;-64
2022/07/15 09:44:25;;;;;;;4.15;0.98;;;23.20;45.50;;;;;;4985486;28;20549;-64
2022/07/15 09:47:03;;;;;;;4.10;0.82;;;23.00;45.80;;;;;;4986305;28;20041;-65
2022/07/15 09:49:29;;;;;;;4.13;0.88;;;22.90;46.00;;;;;;4991089;28;20438;-65
2022/07/15 09:51:56;;;;;;;2.58;1.08;;;22.80;46.00;;;;;;4988969;28;20053;-65
2022/07/15 09:54:25;;;;;;;4.32;1.45;;;22.80;46.10;;;;;;4991049;28;20041;-65
2022/07/15 09:56:52;;;;;;;3.90;1.15;;;22.80;46.30;;;;;;4987415;28;20034;-65
2022/07/15 09:59:18;;;;;;;4.18;1.00;;;22.90;46.20;;;;;;4987130;28;20332;-66
2022/07/15 10:01:47;;;;;;;2.83;0.80;;;23.20;45.80;;;;;;4989080;28;20106;-66
2022/07/15 10:04:15;;;;;;;3.75;1.23;;;23.40;45.80;;;;;;4999457;28;20049;-67
2022/07/15 10:06:42;;;;;;;5.43;1.15;;;23.40;45.50;;;;;;4996099;28;20125;-67
2022/07/15 10:09:09;;;;;;;5.50;1.10;;;23.50;45.30;;;;;;5008494;28;20029;-68
2022/07/15 10:11:46;;;;;;;2.45;0.77;;;23.60;45.10;;;;;;5006848;28;20076;-69
2022/07/15 10:14:23;;;;;;;4.15;1.10;;;23.60;45.10;;;;;;5008685;28;20038;-71
2022/07/15 10:17:01;;;;;;;3.22;0.80;;;23.60;45.30;;;;;;5007024;28;20091;-69
2022/07/15 10:19:53;;;;;;;2.83;0.88;;;23.50;45.20;;;;;;5007352;28;20040;-66
2022/07/15 10:22:30;;;;;;;2.28;0.70;;;23.60;45.00;;;;;;5006399;28;20037;-65
2022/07/15 10:25:28;;;;;;;3.65;1.02;;;23.60;45.00;;;;;;5006044;28;20026;-65
2022/07/15 10:28:15;;;;;;;3.42;0.90;;;23.50;44.90;;;;;;5008059;28;20045;-66
2022/07/15 10:30:42;;;;;;;3.13;0.77;;;23.50;44.90;;;;;;5009489;28;20087;-69
2022/07/15 10:33:13;;;;;;;2.65;0.93;;;23.60;44.80;;;;;;4998910;28;20029;-70
2022/07/15 10:35:42;;;;;;;;;;;23.70;44.60;;;;;;5009296;28;20390;-68
2022/07/15 10:38:29;;;;;;;2.33;0.75;;;24.10;44.20;;;;;;5006568;28;19909;-68
2022/07/15 10:41:01;;;;;;;2.03;0.60;;;24.60;43.40;;;;;;5012262;28;20042;-64
2022/07/15 10:43:41;;;;;;;2.25;0.80;;;25.10;43.50;;;;;;5008943;28;20128;-64
2022/07/15 10:46:17;;;;;;;3.35;1.05;;;25.50;42.20;;;;;;5008767;28;20034;-63
2022/07/15 10:48:46;;;;;;;2.03;0.80;;;25.70;42.10;;;;;;5013870;28;20041;-65
2022/07/15 10:51:32;;;;;;;2.92;0.70;;;25.70;41.80;;;;;;5008897;28;20029;-66
2022/07/15 10:53:59;;;;;;;2.35;0.68;;;25.90;41.70;;;;;;5008613;28;20045;-65
2022/07/15 10:56:36;;;;;;;2.47;0.85;;;25.90;41.70;;;;;;5007544;28;20091;-64
2022/07/15 10:59:19;;;;;;;3.22;0.70;;;26.10;41.30;;;;;;5013596;28;20423;-63
2022/07/15 11:02:07;;;;;;;3.97;1.00;;;26.30;40.90;;;;;;5007826;28;20100;-65
2022/07/15 11:04:36;;;;;;;1.98;0.80;;;26.00;41.00;;;;;;5006601;28;20129;-64
2022/07/15 11:07:02;;;;;;;5.10;1.10;;;25.50;41.40;;;;;;5005773;28;20501;-67
2022/07/15 11:09:57;;;;;;;2.60;0.82;;;25.10;41.80;;;;;;5008408;28;20045;-64
2022/07/15 11:12:32;;;;;;;2.67;0.82;;;25.00;42.00;;;;;;5025887;28;20451;-64
2022/07/15 11:14:58;;;;;;;2.60;0.80;;;25.20;42.10;;;;;;5010178;28;20033;-64
2022/07/15 11:17:29;;;;;;;3.92;0.98;;;25.60;41.70;;;;;;5017215;28;20030;-66
2022/07/15 11:19:57;;;;;;;;;;;25.80;41.10;;;;;;4999067;28;20069;-67
2022/07/15 11:22:25;;;;;;;2.13;0.70;;;25.90;41.30;;;;;;5024459;28;19947;-64
2022/07/15 11:24:52;;;;;;;2.42;0.80;;;25.90;41.00;;;;;;5020749;28;20391;-66
2022/07/15 11:27:19;;;;;;;2.53;0.90;;;25.80;41.00;;;;;;5015617;28;20441;-66
2022/07/15 11:29:50;;;;;;;4.20;1.08;;;25.60;40.90;;;;;;5017700;28;20064;-66
2022/07/15 11:32:17;;;;;;;3.63;1.20;;;25.20;41.20;;;;;;5019051;28;20025;-65
2022/07/15 11:34:46;;;;;;;2.65;0.80;;;24.90;41.70;;;;;;5015619;28;20038;-68
2022/07/15 11:37:18;;;;;;;2.13;0.77;;;24.50;42.00;;;;;;5013205;28;20038;-68
2022/07/15 11:40:03;;;;;;;2.58;0.95;;;24.40;42.50;;;;;;5024178;28;20037;-68
2022/07/15 11:45:35;;;;;;;4.75;1.00;;;24.10;43.10;;;;;;5008897;28;20113;-65
2022/07/15 11:48:01;;;;;;;2.75;0.80;;;24.20;43.10;;;;;;5009001;28;20562;-66
2022/07/15 11:50:27;;;;;;;3.03;0.77;;;24.20;42.90;;;;;;5012317;28;20104;-66
2022/07/15 11:52:57;;;;;;;3.90;0.90;;;24.50;42.50;;;;;;5011288;28;20026;-64
2022/07/15 11:55:23;;;;;;;2.17;0.85;;;24.70;42.20;;;;;;5007756;28;20463;-64
2022/07/15 11:57:51;;;;;;;3.35;0.75;;;24.90;42.00;;;;;;5000505;28;20026;-63
2022/07/15 12:00:19;;;;;;;3.15;0.90;;;25.10;41.70;;;;;;5003102;28;20378;-64
2022/07/15 12:02:44;;;;;;;4.72;1.15;;;25.10;41.50;;;;;;5001379;28;20316;-64
2022/07/15 12:05:11;;;;;;;3.95;1.00;;;24.90;41.60;;;;;;5007929;28;20029;-66
2022/07/15 12:07:43;;;;;;;3.90;0.95;;;24.80;42.20;;;;;;5015122;28;20030;-66
2022/07/15 12:10:10;;;;;;;2.97;0.82;;;24.60;42.40;;;;;;5008159;28;20033;-66
2022/07/15 12:12:40;;;;;;;4.68;1.10;;;24.40;42.60;;;;;;5010919;28;20034;-66
2022/07/15 12:15:07;;;;;;;2.90;0.90;;;24.30;42.80;;;;;;5013185;28;20121;-67
2022/07/15 12:17:33;;;;;;;4.72;0.80;;;24.20;43.20;;;;;;5012339;28;20042;-66
2022/07/15 12:20:02;;;;;;;1.48;0.65;;;24.10;43.20;;;;;;5014420;28;20418;-66
2022/07/15 12:22:28;;;;;;;1.75;0.65;;;24.20;43.30;;;;;;5005509;28;20108;-68
2022/07/15 12:24:53;;;;;;;3.50;0.98;;;24.10;43.30;;;;;;5012765;28;20108;-67
2022/07/15 12:27:31;;;;;;;5.00;0.85;;;24.10;43.60;;;;;;5018027;28;20113;-68
2022/07/15 12:30:06;;;;;;;2.42;0.80;;;24.00;43.70;;;;;;5016250;28;20459;-68
2022/07/15 12:32:31;;;;;;;3.35;0.85;;;23.90;43.80;;;;;;5013347;28;20462;-68
2022/07/15 12:34:59;;;;;;;3.22;0.90;;;23.90;43.90;;;;;;5013981;28;20018;-68
2022/07/15 12:37:45;;;;;;;3.08;1.00;;;23.90;43.50;;;;;;5009891;28;20138;-66
2022/07/15 12:40:13;;;;;;;3.08;0.90;;;23.90;43.40;;;;;;5009180;28;20101;-67
2022/07/15 12:42:44;;;;;;;3.30;0.90;;;24.00;43.20;;;;;;5010032;28;20033;-66
2022/07/15 12:45:25;;;;;;;3.92;1.13;;;24.10;43.20;;;;;;5013459;28;20100;-67
2022/07/15 12:48:09;;;;;;;3.45;0.80;;;24.20;43.00;;;;;;5000262;28;20463;-67
2022/07/15 12:50:47;;;;;;;2.97;0.90;;;24.20;42.90;;;;;;5010307;28;20030;-67
2022/07/15 12:53:13;;;;;;;4.07;1.17;;;24.20;43.30;;;;;;5009558;28;20037;-67
2022/07/15 12:55:47;;;;;;;3.95;1.10;;;24.10;43.50;;;;;;5006554;28;20391;-67
2022/07/15 12:58:17;;;;;;;2.80;1.00;;;24.10;43.60;;;;;;5006843;28;20022;-67
2022/07/15 13:00:45;;;;;;;3.47;0.90;;;23.90;43.50;;;;;;5011576;28;20041;-66
2022/07/15 13:03:19;;;;;;;5.00;1.00;;;23.90;43.60;;;;;;5010529;28;20108;-66
2022/07/15 13:05:54;;;;;;;2.03;0.55;;;23.90;43.50;;;;;;5010275;28;20088;-66